sensor_id;sensor_type;location;lat;lon;timestamp;pressure;altitude;pressure_sealevel;temperature;humidity
48810;BME280;40070;47.322;18.784;2023-09-12T00:01:23;1000.70;;;19.50;62.50
48810;BME280;40070;47.322;18.784;2023-09-12T00:03:24;1000.71;;;19.55;62.32
48810;BME280;40070;47.322;18.784;2023-09-12T00:05:25;1000.74;;;19.44;62.53
48810;BME280;40070;47.322;18.784;2023-09-12T00:07:26;1000.71;;;19.31;62.83
48810;BME280;40070;47.322;18.784;2023-09-12T00:09:27;1000.68;;;19.20;62.45
48810;BME280;40070;47.322;18.784;2023-09-12T00:11:28;1000.70;;;19.27;62.00
48810;BME280;40070;47.322;18.784;2023-09-12T00:13:29;1000.70;;;19.37;61.66
48810;BME280;40070;47.322;18.784;2023-09-12T00:15:31;1000.69;;;19.20;62.20
48810;BME280;40070;47.322;18.784;2023-09-12T00:17:32;1000.72;;;19.47;61.43
48810;BME280;40070;47.322;18.784;2023-09-12T00:19:33;1000.70;;;19.44;61.73
48810;BME280;40070;47.322;18.784;2023-09-12T00:21:34;1000.62;;;19.38;61.64
48810;BME280;40070;47.322;18.784;2023-09-12T00:23:34;1000.63;;;19.16;62.30
48810;BME280;40070;47.322;18.784;2023-09-12T00:25:36;1000.62;;;19.32;61.86
48810;BME280;40070;47.322;18.784;2023-09-12T00:27:37;1000.62;;;19.27;61.98
48810;BME280;40070;47.322;18.784;2023-09-12T00:29:38;1000.62;;;19.41;61.47
48810;BME280;40070;47.322;18.784;2023-09-12T00:31:39;1000.63;;;19.24;62.08
48810;BME280;40070;47.322;18.784;2023-09-12T00:33:40;1000.64;;;19.22;61.87
48810;BME280;40070;47.322;18.784;2023-09-12T00:35:41;1000.64;;;19.27;61.73
48810;BME280;40070;47.322;18.784;2023-09-12T00:37:41;1000.70;;;19.38;61.27
48810;BME280;40070;47.322;18.784;2023-09-12T00:39:42;1000.67;;;19.49;60.92
48810;BME280;40070;47.322;18.784;2023-09-12T00:41:43;1000.64;;;19.45;61.43
48810;BME280;40070;47.322;18.784;2023-09-12T00:43:44;1000.66;;;19.56;61.40
48810;BME280;40070;47.322;18.784;2023-09-12T00:45:45;1000.69;;;19.44;61.96
48810;BME280;40070;47.322;18.784;2023-09-12T00:47:47;1000.70;;;19.43;61.67
48810;BME280;40070;47.322;18.784;2023-09-12T00:49:49;1000.63;;;19.27;61.98
48810;BME280;40070;47.322;18.784;2023-09-12T00:51:51;1000.66;;;19.22;62.22
48810;BME280;40070;47.322;18.784;2023-09-12T00:53:52;1000.67;;;19.06;62.77
48810;BME280;40070;47.322;18.784;2023-09-12T00:55:54;1000.69;;;19.09;62.75
48810;BME280;40070;47.322;18.784;2023-09-12T00:57:56;1000.69;;;19.17;62.44
48810;BME280;40070;47.322;18.784;2023-09-12T00:59:57;1000.66;;;19.23;61.98
48810;BME280;40070;47.322;18.784;2023-09-12T01:01:59;1000.72;;;18.98;62.71
48810;BME280;40070;47.322;18.784;2023-09-12T01:04:00;1000.73;;;18.97;62.73
48810;BME280;40070;47.322;18.784;2023-09-12T01:06:01;1000.74;;;18.96;63.15
48810;BME280;40070;47.322;18.784;2023-09-12T01:08:03;1000.78;;;19.07;63.03
48810;BME280;40070;47.322;18.784;2023-09-12T01:10:07;1000.80;;;19.00;63.26
48810;BME280;40070;47.322;18.784;2023-09-12T01:12:08;1000.82;;;19.00;63.42
48810;BME280;40070;47.322;18.784;2023-09-12T01:14:09;1000.78;;;18.94;63.61
48810;BME280;40070;47.322;18.784;2023-09-12T01:16:10;1000.75;;;18.80;64.15
48810;BME280;40070;47.322;18.784;2023-09-12T01:18:11;1000.73;;;18.88;63.75
48810;BME280;40070;47.322;18.784;2023-09-12T01:20:16;1000.73;;;18.84;63.87
48810;BME280;40070;47.322;18.784;2023-09-12T01:29:20;1000.75;;;18.92;63.75
48810;BME280;40070;47.322;18.784;2023-09-12T01:31:22;1000.71;;;18.77;63.87
48810;BME280;40070;47.322;18.784;2023-09-12T01:33:23;1000.72;;;18.78;63.70
48810;BME280;40070;47.322;18.784;2023-09-12T01:35:24;1000.71;;;18.69;64.18
48810;BME280;40070;47.322;18.784;2023-09-12T01:37:26;1000.67;;;18.47;65.02
48810;BME280;40070;47.322;18.784;2023-09-12T01:39:27;1000.69;;;18.70;64.52
48810;BME280;40070;47.322;18.784;2023-09-12T01:41:28;1000.71;;;18.80;64.10
48810;BME280;40070;47.322;18.784;2023-09-12T01:43:31;1000.68;;;18.68;63.88
48810;BME280;40070;47.322;18.784;2023-09-12T01:45:33;1000.69;;;18.49;64.48
48810;BME280;40070;47.322;18.784;2023-09-12T01:47:35;1000.74;;;18.63;63.80
48810;BME280;40070;47.322;18.784;2023-09-12T01:49:39;1000.72;;;18.52;64.19
48810;BME280;40070;47.322;18.784;2023-09-12T01:51:40;1000.78;;;18.56;64.13
48810;BME280;40070;47.322;18.784;2023-09-12T01:53:41;1000.74;;;18.36;65.13
48810;BME280;40070;47.322;18.784;2023-09-12T01:55:45;1000.78;;;18.23;65.67
48810;BME280;40070;47.322;18.784;2023-09-12T01:57:47;1000.76;;;18.14;66.01
48810;BME280;40070;47.322;18.784;2023-09-12T01:59:48;1000.74;;;17.96;66.79
48810;BME280;40070;47.322;18.784;2023-09-12T02:01:50;1000.77;;;18.06;66.59
48810;BME280;40070;47.322;18.784;2023-09-12T02:03:51;1000.77;;;18.17;66.21
48810;BME280;40070;47.322;18.784;2023-09-12T02:05:52;1000.76;;;18.28;65.21
48810;BME280;40070;47.322;18.784;2023-09-12T02:07:53;1000.76;;;18.20;65.29
48810;BME280;40070;47.322;18.784;2023-09-12T02:09:54;1000.76;;;17.98;65.70
48810;BME280;40070;47.322;18.784;2023-09-12T02:11:55;1000.74;;;18.28;65.00
48810;BME280;40070;47.322;18.784;2023-09-12T02:13:55;1000.74;;;18.27;65.07
48810;BME280;40070;47.322;18.784;2023-09-12T02:16:00;1000.75;;;18.22;65.16
48810;BME280;40070;47.322;18.784;2023-09-12T02:18:01;1000.75;;;18.29;64.77
48810;BME280;40070;47.322;18.784;2023-09-12T02:20:02;1000.76;;;18.17;64.94
48810;BME280;40070;47.322;18.784;2023-09-12T02:22:03;1000.75;;;18.03;65.42
48810;BME280;40070;47.322;18.784;2023-09-12T02:24:04;1000.76;;;18.29;64.68
48810;BME280;40070;47.322;18.784;2023-09-12T02:26:05;1000.76;;;18.42;64.42
48810;BME280;40070;47.322;18.784;2023-09-12T02:28:06;1000.78;;;18.22;64.87
48810;BME280;40070;47.322;18.784;2023-09-12T02:30:07;1000.77;;;18.24;64.79
48810;BME280;40070;47.322;18.784;2023-09-12T02:32:08;1000.74;;;18.43;64.44
48810;BME280;40070;47.322;18.784;2023-09-12T02:34:10;1000.76;;;18.43;64.61
48810;BME280;40070;47.322;18.784;2023-09-12T02:36:11;1000.73;;;18.34;64.64
48810;BME280;40070;47.322;18.784;2023-09-12T02:38:13;1000.74;;;18.27;64.89
48810;BME280;40070;47.322;18.784;2023-09-12T02:40:14;1000.72;;;18.38;64.58
48810;BME280;40070;47.322;18.784;2023-09-12T02:42:15;1000.73;;;18.53;63.95
48810;BME280;40070;47.322;18.784;2023-09-12T02:44:16;1000.75;;;18.54;63.78
48810;BME280;40070;47.322;18.784;2023-09-12T02:46:17;1000.73;;;18.37;64.02
48810;BME280;40070;47.322;18.784;2023-09-12T02:48:18;1000.75;;;18.39;63.98
48810;BME280;40070;47.322;18.784;2023-09-12T02:50:19;1000.73;;;18.41;64.16
48810;BME280;40070;47.322;18.784;2023-09-12T02:52:20;1000.69;;;18.36;64.58
48810;BME280;40070;47.322;18.784;2023-09-12T02:54:21;1000.73;;;18.25;64.95
48810;BME280;40070;47.322;18.784;2023-09-12T02:56:22;1000.74;;;18.06;65.63
48810;BME280;40070;47.322;18.784;2023-09-12T02:58:23;1000.69;;;18.01;65.81
48810;BME280;40070;47.322;18.784;2023-09-12T03:00:24;1000.66;;;17.76;66.54
48810;BME280;40070;47.322;18.784;2023-09-12T03:02:25;1000.67;;;17.89;66.06
48810;BME280;40070;47.322;18.784;2023-09-12T03:04:26;1000.65;;;17.75;66.37
48810;BME280;40070;47.322;18.784;2023-09-12T03:06:27;1000.67;;;17.54;66.99
48810;BME280;40070;47.322;18.784;2023-09-12T03:08:29;1000.66;;;17.61;66.96
48810;BME280;40070;47.322;18.784;2023-09-12T03:10:30;1000.61;;;17.80;66.24
48810;BME280;40070;47.322;18.784;2023-09-12T03:12:31;1000.68;;;17.80;66.03
48810;BME280;40070;47.322;18.784;2023-09-12T03:14:32;1000.71;;;17.84;65.82
48810;BME280;40070;47.322;18.784;2023-09-12T03:16:32;1000.71;;;17.56;66.84
48810;BME280;40070;47.322;18.784;2023-09-12T03:18:33;1000.71;;;17.45;67.47
48810;BME280;40070;47.322;18.784;2023-09-12T03:20:37;1000.72;;;17.50;67.62
48810;BME280;40070;47.322;18.784;2023-09-12T03:22:38;1000.76;;;17.57;67.43
48810;BME280;40070;47.322;18.784;2023-09-12T03:24:39;1000.77;;;17.71;66.86
48810;BME280;40070;47.322;18.784;2023-09-12T03:26:40;1000.76;;;17.60;67.43
48810;BME280;40070;47.322;18.784;2023-09-12T03:28:41;1000.79;;;17.47;67.86
48810;BME280;40070;47.322;18.784;2023-09-12T03:30:42;1000.82;;;17.38;68.37
48810;BME280;40070;47.322;18.784;2023-09-12T03:32:43;1000.80;;;17.57;67.75
48810;BME280;40070;47.322;18.784;2023-09-12T03:34:44;1000.80;;;17.54;67.72
48810;BME280;40070;47.322;18.784;2023-09-12T03:36:45;1000.81;;;17.61;67.33
48810;BME280;40070;47.322;18.784;2023-09-12T03:38:45;1000.81;;;17.22;68.69
48810;BME280;40070;47.322;18.784;2023-09-12T03:40:46;1000.82;;;17.39;68.43
48810;BME280;40070;47.322;18.784;2023-09-12T03:42:47;1000.77;;;17.69;67.24
48810;BME280;40070;47.322;18.784;2023-09-12T03:44:48;1000.79;;;17.43;67.96
48810;BME280;40070;47.322;18.784;2023-09-12T03:46:49;1000.84;;;17.59;67.50
48810;BME280;40070;47.322;18.784;2023-09-12T03:48:50;1000.83;;;17.62;67.19
48810;BME280;40070;47.322;18.784;2023-09-12T03:50:51;1000.83;;;17.64;66.98
48810;BME280;40070;47.322;18.784;2023-09-12T03:52:52;1000.80;;;17.46;67.83
48810;BME280;40070;47.322;18.784;2023-09-12T03:54:53;1000.76;;;17.60;66.97
48810;BME280;40070;47.322;18.784;2023-09-12T03:56:54;1000.76;;;17.51;67.66
48810;BME280;40070;47.322;18.784;2023-09-12T03:58:55;1000.79;;;17.62;67.35
48810;BME280;40070;47.322;18.784;2023-09-12T04:00:56;1000.80;;;17.71;66.69
48810;BME280;40070;47.322;18.784;2023-09-12T04:02:57;1000.87;;;17.60;67.05
48810;BME280;40070;47.322;18.784;2023-09-12T04:04:58;1000.90;;;17.48;67.50
48810;BME280;40070;47.322;18.784;2023-09-12T04:06:59;1000.88;;;17.45;67.88
48810;BME280;40070;47.322;18.784;2023-09-12T04:09:00;1000.88;;;17.57;67.50
48810;BME280;40070;47.322;18.784;2023-09-12T04:11:01;1000.93;;;17.61;67.33
48810;BME280;40070;47.322;18.784;2023-09-12T04:13:02;1000.94;;;17.56;67.33
48810;BME280;40070;47.322;18.784;2023-09-12T04:15:03;1000.98;;;17.58;67.48
48810;BME280;40070;47.322;18.784;2023-09-12T04:17:04;1001.00;;;17.59;67.59
48810;BME280;40070;47.322;18.784;2023-09-12T04:19:05;1001.02;;;17.65;67.45
48810;BME280;40070;47.322;18.784;2023-09-12T04:21:06;1000.99;;;17.87;66.99
48810;BME280;40070;47.322;18.784;2023-09-12T04:23:07;1001.03;;;17.72;67.81
48810;BME280;40070;47.322;18.784;2023-09-12T04:25:08;1001.02;;;17.71;68.02
48810;BME280;40070;47.322;18.784;2023-09-12T04:27:09;1001.03;;;17.71;67.62
48810;BME280;40070;47.322;18.784;2023-09-12T04:29:10;1001.01;;;17.75;67.45
48810;BME280;40070;47.322;18.784;2023-09-12T04:31:11;1001.00;;;17.91;66.76
48810;BME280;40070;47.322;18.784;2023-09-12T04:33:12;1001.00;;;17.91;66.57
48810;BME280;40070;47.322;18.784;2023-09-12T04:35:13;1001.01;;;18.08;65.78
48810;BME280;40070;47.322;18.784;2023-09-12T04:37:14;1000.99;;;18.02;66.13
48810;BME280;40070;47.322;18.784;2023-09-12T04:39:15;1000.99;;;18.00;66.01
48810;BME280;40070;47.322;18.784;2023-09-12T04:41:16;1000.97;;;18.02;66.03
48810;BME280;40070;47.322;18.784;2023-09-12T04:43:18;1000.99;;;18.13;65.98
48810;BME280;40070;47.322;18.784;2023-09-12T04:45:19;1001.02;;;18.11;65.75
48810;BME280;40070;47.322;18.784;2023-09-12T04:47:21;1001.04;;;18.18;65.73
48810;BME280;40070;47.322;18.784;2023-09-12T04:49:22;1001.06;;;18.17;65.89
48810;BME280;40070;47.322;18.784;2023-09-12T04:51:23;1001.07;;;17.96;66.54
48810;BME280;40070;47.322;18.784;2023-09-12T04:53:24;1001.10;;;17.61;67.57
48810;BME280;40070;47.322;18.784;2023-09-12T04:55:25;1001.12;;;17.77;67.35
48810;BME280;40070;47.322;18.784;2023-09-12T04:57:26;1001.18;;;17.73;67.46
48810;BME280;40070;47.322;18.784;2023-09-12T04:59:27;1001.18;;;18.05;66.44
48810;BME280;40070;47.322;18.784;2023-09-12T05:01:27;1001.21;;;18.08;65.94
48810;BME280;40070;47.322;18.784;2023-09-12T05:03:28;1001.25;;;17.87;66.25
48810;BME280;40070;47.322;18.784;2023-09-12T05:05:29;1001.24;;;18.00;65.97
48810;BME280;40070;47.322;18.784;2023-09-12T05:07:30;1001.25;;;18.17;65.56
48810;BME280;40070;47.322;18.784;2023-09-12T05:09:31;1001.23;;;18.20;65.12
48810;BME280;40070;47.322;18.784;2023-09-12T05:11:32;1001.22;;;18.31;65.24
48810;BME280;40070;47.322;18.784;2023-09-12T05:13:33;1001.29;;;18.37;65.35
48810;BME280;40070;47.322;18.784;2023-09-12T05:15:34;1001.22;;;18.51;65.19
48810;BME280;40070;47.322;18.784;2023-09-12T05:17:35;1001.21;;;18.60;64.76
48810;BME280;40070;47.322;18.784;2023-09-12T05:19:36;1001.20;;;18.75;64.58
48810;BME280;40070;47.322;18.784;2023-09-12T05:21:37;1001.22;;;18.84;64.19
48810;BME280;40070;47.322;18.784;2023-09-12T05:23:38;1001.23;;;18.80;64.81
48810;BME280;40070;47.322;18.784;2023-09-12T05:25:39;1001.25;;;19.01;64.46
48810;BME280;40070;47.322;18.784;2023-09-12T05:27:40;1001.24;;;18.99;64.13
48810;BME280;40070;47.322;18.784;2023-09-12T05:29:41;1001.24;;;19.07;64.17
48810;BME280;40070;47.322;18.784;2023-09-12T05:31:42;1001.27;;;19.00;64.32
48810;BME280;40070;47.322;18.784;2023-09-12T05:33:43;1001.27;;;19.15;64.20
48810;BME280;40070;47.322;18.784;2023-09-12T05:35:44;1001.30;;;19.29;63.84
48810;BME280;40070;47.322;18.784;2023-09-12T05:37:45;1001.37;;;19.39;63.44
48810;BME280;40070;47.322;18.784;2023-09-12T05:39:46;1001.39;;;19.34;63.85
48810;BME280;40070;47.322;18.784;2023-09-12T05:41:47;1001.38;;;19.21;64.28
48810;BME280;40070;47.322;18.784;2023-09-12T05:43:48;1001.41;;;19.14;64.44
48810;BME280;40070;47.322;18.784;2023-09-12T05:45:49;1001.43;;;19.46;63.34
48810;BME280;40070;47.322;18.784;2023-09-12T05:47:50;1001.44;;;19.59;62.88
48810;BME280;40070;47.322;18.784;2023-09-12T05:49:51;1001.40;;;19.74;62.12
48810;BME280;40070;47.322;18.784;2023-09-12T05:51:52;1001.43;;;19.99;61.46
48810;BME280;40070;47.322;18.784;2023-09-12T05:53:53;1001.45;;;20.01;61.61
48810;BME280;40070;47.322;18.784;2023-09-12T05:55:54;1001.43;;;20.17;61.89
48810;BME280;40070;47.322;18.784;2023-09-12T05:57:55;1001.40;;;20.25;61.96
48810;BME280;40070;47.322;18.784;2023-09-12T05:59:56;1001.43;;;20.41;61.69
48810;BME280;40070;47.322;18.784;2023-09-12T06:01:57;1001.42;;;20.54;61.47
48810;BME280;40070;47.322;18.784;2023-09-12T06:03:58;1001.46;;;20.67;61.36
48810;BME280;40070;47.322;18.784;2023-09-12T06:05:59;1001.43;;;20.82;61.06
48810;BME280;40070;47.322;18.784;2023-09-12T06:08:00;1001.47;;;20.97;60.68
48810;BME280;40070;47.322;18.784;2023-09-12T06:10:01;1001.45;;;21.12;60.50
48810;BME280;40070;47.322;18.784;2023-09-12T06:12:02;1001.54;;;21.28;60.00
48810;BME280;40070;47.322;18.784;2023-09-12T06:14:03;1001.55;;;21.40;59.67
48810;BME280;40070;47.322;18.784;2023-09-12T06:16:04;1001.53;;;21.43;59.39
48810;BME280;40070;47.322;18.784;2023-09-12T06:18:05;1001.50;;;21.53;58.94
48810;BME280;40070;47.322;18.784;2023-09-12T06:20:07;1001.48;;;21.55;59.05
48810;BME280;40070;47.322;18.784;2023-09-12T06:22:08;1001.49;;;21.72;58.23
48810;BME280;40070;47.322;18.784;2023-09-12T06:24:10;1001.47;;;21.89;57.75
48810;BME280;40070;47.322;18.784;2023-09-12T06:26:11;1001.52;;;22.06;57.26
48810;BME280;40070;47.322;18.784;2023-09-12T06:28:12;1001.53;;;22.23;56.94
48810;BME280;40070;47.322;18.784;2023-09-12T06:30:13;1001.50;;;22.27;56.59
48810;BME280;40070;47.322;18.784;2023-09-12T06:32:14;1001.51;;;22.45;56.76
48810;BME280;40070;47.322;18.784;2023-09-12T06:34:15;1001.47;;;22.58;56.23
48810;BME280;40070;47.322;18.784;2023-09-12T06:36:16;1001.48;;;22.62;56.17
48810;BME280;40070;47.322;18.784;2023-09-12T06:38:17;1001.47;;;22.71;55.91
48810;BME280;40070;47.322;18.784;2023-09-12T06:40:18;1001.47;;;22.64;56.74
48810;BME280;40070;47.322;18.784;2023-09-12T06:42:19;1001.48;;;22.81;56.16
48810;BME280;40070;47.322;18.784;2023-09-12T06:44:20;1001.44;;;22.96;55.85
48810;BME280;40070;47.322;18.784;2023-09-12T06:46:21;1001.40;;;23.04;55.69
48810;BME280;40070;47.322;18.784;2023-09-12T06:48:22;1001.45;;;23.08;55.66
48810;BME280;40070;47.322;18.784;2023-09-12T06:50:23;1001.44;;;23.09;55.73
48810;BME280;40070;47.322;18.784;2023-09-12T06:52:24;1001.46;;;23.22;55.42
48810;BME280;40070;47.322;18.784;2023-09-12T06:54:25;1001.51;;;23.35;55.25
48810;BME280;40070;47.322;18.784;2023-09-12T06:56:26;1001.47;;;23.19;55.68
48810;BME280;40070;47.322;18.784;2023-09-12T06:58:27;1001.51;;;23.26;55.64
48810;BME280;40070;47.322;18.784;2023-09-12T07:00:28;1001.51;;;23.26;55.23
48810;BME280;40070;47.322;18.784;2023-09-12T07:02:29;1001.53;;;23.39;55.30
48810;BME280;40070;47.322;18.784;2023-09-12T07:04:30;1001.55;;;23.48;55.13
48810;BME280;40070;47.322;18.784;2023-09-12T07:06:31;1001.56;;;23.54;55.67
48810;BME280;40070;47.322;18.784;2023-09-12T07:08:32;1001.56;;;23.75;54.75
48810;BME280;40070;47.322;18.784;2023-09-12T07:10:33;1001.59;;;24.02;54.19
48810;BME280;40070;47.322;18.784;2023-09-12T07:12:34;1001.58;;;23.98;54.12
48810;BME280;40070;47.322;18.784;2023-09-12T07:14:35;1001.54;;;23.94;54.20
48810;BME280;40070;47.322;18.784;2023-09-12T07:16:36;1001.54;;;24.18;53.93
48810;BME280;40070;47.322;18.784;2023-09-12T07:18:37;1001.51;;;24.39;53.63
48810;BME280;40070;47.322;18.784;2023-09-12T07:20:38;1001.47;;;24.40;53.50
48810;BME280;40070;47.322;18.784;2023-09-12T07:22:39;1001.49;;;24.48;53.48
48810;BME280;40070;47.322;18.784;2023-09-12T07:24:40;1001.49;;;24.64;53.04
48810;BME280;40070;47.322;18.784;2023-09-12T07:26:41;1001.48;;;24.68;52.88
48810;BME280;40070;47.322;18.784;2023-09-12T07:28:42;1001.50;;;24.87;52.51
48810;BME280;40070;47.322;18.784;2023-09-12T07:30:45;1001.49;;;24.92;52.37
48810;BME280;40070;47.322;18.784;2023-09-12T07:32:46;1001.45;;;25.10;51.77
48810;BME280;40070;47.322;18.784;2023-09-12T07:34:47;1001.48;;;25.24;51.22
48810;BME280;40070;47.322;18.784;2023-09-12T07:36:48;1001.44;;;25.20;51.17
48810;BME280;40070;47.322;18.784;2023-09-12T07:38:49;1001.47;;;25.28;50.51
48810;BME280;40070;47.322;18.784;2023-09-12T07:40:50;1001.50;;;25.44;50.32
48810;BME280;40070;47.322;18.784;2023-09-12T07:42:51;1001.44;;;25.55;49.63
48810;BME280;40070;47.322;18.784;2023-09-12T07:44:52;1001.45;;;25.70;49.05
48810;BME280;40070;47.322;18.784;2023-09-12T07:46:53;1001.47;;;25.88;48.26
48810;BME280;40070;47.322;18.784;2023-09-12T07:48:54;1001.46;;;26.08;47.78
48810;BME280;40070;47.322;18.784;2023-09-12T07:50:55;1001.42;;;26.10;47.90
48810;BME280;40070;47.322;18.784;2023-09-12T07:52:56;1001.43;;;26.21;47.95
48810;BME280;40070;47.322;18.784;2023-09-12T07:55:00;1001.40;;;26.52;46.66
48810;BME280;40070;47.322;18.784;2023-09-12T07:57:01;1001.39;;;26.57;46.10
48810;BME280;40070;47.322;18.784;2023-09-12T07:59:02;1001.34;;;26.74;45.93
48810;BME280;40070;47.322;18.784;2023-09-12T08:01:07;1001.36;;;26.95;45.54
48810;BME280;40070;47.322;18.784;2023-09-12T08:03:08;1001.32;;;27.19;45.17
48810;BME280;40070;47.322;18.784;2023-09-12T08:05:09;1001.36;;;27.39;44.90
48810;BME280;40070;47.322;18.784;2023-09-12T08:07:10;1001.38;;;27.49;43.71
48810;BME280;40070;47.322;18.784;2023-09-12T08:09:11;1001.33;;;27.75;43.28
48810;BME280;40070;47.322;18.784;2023-09-12T08:11:12;1001.35;;;27.83;44.07
48810;BME280;40070;47.322;18.784;2023-09-12T08:13:13;1001.34;;;27.98;43.13
48810;BME280;40070;47.322;18.784;2023-09-12T08:15:14;1001.37;;;27.94;43.34
48810;BME280;40070;47.322;18.784;2023-09-12T08:17:15;1001.35;;;27.91;43.08
48810;BME280;40070;47.322;18.784;2023-09-12T08:19:16;1001.33;;;28.21;42.95
48810;BME280;40070;47.322;18.784;2023-09-12T08:21:17;1001.34;;;28.18;43.52
48810;BME280;40070;47.322;18.784;2023-09-12T08:23:18;1001.34;;;28.46;42.89
48810;BME280;40070;47.322;18.784;2023-09-12T08:25:19;1001.31;;;28.71;42.93
48810;BME280;40070;47.322;18.784;2023-09-12T08:27:20;1001.31;;;28.90;41.93
48810;BME280;40070;47.322;18.784;2023-09-12T08:29:21;1001.33;;;29.19;41.32
48810;BME280;40070;47.322;18.784;2023-09-12T08:31:22;1001.34;;;29.28;40.68
48810;BME280;40070;47.322;18.784;2023-09-12T08:33:23;1001.35;;;29.36;39.53
48810;BME280;40070;47.322;18.784;2023-09-12T08:35:24;1001.33;;;29.22;39.65
48810;BME280;40070;47.322;18.784;2023-09-12T08:37:25;1001.29;;;29.56;39.23
48810;BME280;40070;47.322;18.784;2023-09-12T08:39:27;1001.30;;;29.78;37.66
48810;BME280;40070;47.322;18.784;2023-09-12T08:41:28;1001.32;;;29.82;38.10
48810;BME280;40070;47.322;18.784;2023-09-12T08:43:29;1001.28;;;29.84;37.81
48810;BME280;40070;47.322;18.784;2023-09-12T08:45:30;1001.30;;;29.90;35.90
48810;BME280;40070;47.322;18.784;2023-09-12T08:47:31;1001.29;;;29.79;35.83
48810;BME280;40070;47.322;18.784;2023-09-12T08:49:34;1001.32;;;29.97;36.83
48810;BME280;40070;47.322;18.784;2023-09-12T08:51:37;1001.31;;;30.44;35.64
48810;BME280;40070;47.322;18.784;2023-09-12T08:53:38;1001.33;;;30.50;34.85
48810;BME280;40070;47.322;18.784;2023-09-12T08:55:39;1001.32;;;30.45;34.47
48810;BME280;40070;47.322;18.784;2023-09-12T08:57:43;1001.30;;;30.29;34.74
48810;BME280;40070;47.322;18.784;2023-09-12T08:59:44;1001.24;;;30.37;35.05
48810;BME280;40070;47.322;18.784;2023-09-12T09:01:46;1001.24;;;30.52;34.58
48810;BME280;40070;47.322;18.784;2023-09-12T09:03:47;1001.26;;;30.84;33.29
48810;BME280;40070;47.322;18.784;2023-09-12T09:05:49;1001.25;;;31.11;32.88
48810;BME280;40070;47.322;18.784;2023-09-12T09:07:50;1001.21;;;31.11;33.60
48810;BME280;40070;47.322;18.784;2023-09-12T09:09:52;1001.21;;;30.94;33.37
48810;BME280;40070;47.322;18.784;2023-09-12T09:11:53;1001.15;;;31.14;33.03
48810;BME280;40070;47.322;18.784;2023-09-12T09:13:54;1001.16;;;31.16;32.74
48810;BME280;40070;47.322;18.784;2023-09-12T09:16:17;1001.20;;;31.56;32.88
48810;BME280;40070;47.322;18.784;2023-09-12T09:18:09;1001.22;;;31.53;32.03
48810;BME280;40070;47.322;18.784;2023-09-12T09:20:10;1001.16;;;31.42;32.11
48810;BME280;40070;47.322;18.784;2023-09-12T09:22:21;1001.22;;;31.78;33.31
48810;BME280;40070;47.322;18.784;2023-09-12T09:24:22;1001.21;;;31.83;31.32
48810;BME280;40070;47.322;18.784;2023-09-12T09:26:23;1001.17;;;31.84;30.79
48810;BME280;40070;47.322;18.784;2023-09-12T09:28:25;1001.17;;;32.09;30.85
48810;BME280;40070;47.322;18.784;2023-09-12T09:30:59;1001.18;;;31.99;31.29
48810;BME280;40070;47.322;18.784;2023-09-12T09:32:45;1001.16;;;32.36;30.60
48810;BME280;40070;47.322;18.784;2023-09-12T09:34:46;1001.19;;;32.45;31.01
48810;BME280;40070;47.322;18.784;2023-09-12T09:36:48;1001.13;;;32.65;31.11
48810;BME280;40070;47.322;18.784;2023-09-12T09:38:49;1001.10;;;32.89;30.73
48810;BME280;40070;47.322;18.784;2023-09-12T09:40:50;1001.10;;;32.82;30.00
48810;BME280;40070;47.322;18.784;2023-09-12T09:43:01;1001.07;;;33.02;30.11
48810;BME280;40070;47.322;18.784;2023-09-12T09:45:02;1001.08;;;33.02;28.88
48810;BME280;40070;47.322;18.784;2023-09-12T09:47:03;1001.06;;;33.13;29.66
48810;BME280;40070;47.322;18.784;2023-09-12T09:49:04;1001.08;;;33.06;29.35
48810;BME280;40070;47.322;18.784;2023-09-12T09:51:05;1001.01;;;33.22;28.81
48810;BME280;40070;47.322;18.784;2023-09-12T09:53:06;1001.02;;;33.36;28.55
48810;BME280;40070;47.322;18.784;2023-09-12T09:55:07;1001.07;;;33.44;28.83
48810;BME280;40070;47.322;18.784;2023-09-12T09:57:08;1000.99;;;33.35;28.60
48810;BME280;40070;47.322;18.784;2023-09-12T09:59:09;1000.97;;;33.44;28.04
48810;BME280;40070;47.322;18.784;2023-09-12T10:01:17;1000.98;;;33.34;27.69
48810;BME280;40070;47.322;18.784;2023-09-12T10:03:18;1000.94;;;33.23;26.41
48810;BME280;40070;47.322;18.784;2023-09-12T10:05:19;1000.95;;;33.70;26.67
48810;BME280;40070;47.322;18.784;2023-09-12T10:07:21;1000.94;;;33.91;26.76
48810;BME280;40070;47.322;18.784;2023-09-12T10:09:23;1000.95;;;34.01;26.93
48810;BME280;40070;47.322;18.784;2023-09-12T10:11:27;1000.90;;;34.17;26.89
48810;BME280;40070;47.322;18.784;2023-09-12T10:13:29;1000.92;;;33.86;26.79
48810;BME280;40070;47.322;18.784;2023-09-12T10:15:32;1000.90;;;33.66;26.61
48810;BME280;40070;47.322;18.784;2023-09-12T10:17:35;1000.90;;;33.60;26.75
48810;BME280;40070;47.322;18.784;2023-09-12T10:19:43;1000.85;;;33.92;26.49
48810;BME280;40070;47.322;18.784;2023-09-12T10:21:57;1000.85;;;33.91;26.82
48810;BME280;40070;47.322;18.784;2023-09-12T10:24:01;1000.82;;;34.04;26.54
48810;BME280;40070;47.322;18.784;2023-09-12T10:26:03;1000.76;;;33.88;26.80
48810;BME280;40070;47.322;18.784;2023-09-12T10:28:05;1000.76;;;34.06;26.54
48810;BME280;40070;47.322;18.784;2023-09-12T10:30:06;1000.76;;;34.09;26.53
48810;BME280;40070;47.322;18.784;2023-09-12T10:32:08;1000.70;;;34.25;26.43
48810;BME280;40070;47.322;18.784;2023-09-12T10:34:10;1000.72;;;33.99;26.12
48810;BME280;40070;47.322;18.784;2023-09-12T10:36:12;1000.63;;;34.26;25.90
48810;BME280;40070;47.322;18.784;2023-09-12T10:38:14;1000.60;;;34.33;26.09
48810;BME280;40070;47.322;18.784;2023-09-12T10:40:17;1000.63;;;34.62;25.86
48810;BME280;40070;47.322;18.784;2023-09-12T10:42:18;1000.53;;;34.65;26.08
48810;BME280;40070;47.322;18.784;2023-09-12T10:44:20;1000.55;;;34.80;24.94
48810;BME280;40070;47.322;18.784;2023-09-12T10:46:21;1000.55;;;35.03;26.08
48810;BME280;40070;47.322;18.784;2023-09-12T10:48:23;1000.54;;;34.66;25.04
48810;BME280;40070;47.322;18.784;2023-09-12T10:50:24;1000.55;;;34.59;25.42